sensor_id;sensor_type;location;lat;lon;timestamp;pressure;altitude;pressure_sealevel;temperature;humidity
68656;BME280;55638;51.122;13.606;2023-12-22T00:00:17;97650.22;;;4.38;55.46
68656;BME280;55638;51.122;13.606;2023-12-22T00:01:49;97652.88;;;4.38;55.68
68656;BME280;55638;51.122;13.606;2023-12-22T00:03:21;97642.38;;;4.36;55.56
68656;BME280;55638;51.122;13.606;2023-12-22T00:04:53;97649.38;;;4.38;55.61
68656;BME280;55638;51.122;13.606;2023-12-22T00:06:25;97641.06;;;4.41;55.50
68656;BME280;55638;51.122;13.606;2023-12-22T00:07:57;97643.88;;;4.39;55.48
68656;BME280;55638;51.122;13.606;2023-12-22T00:09:29;97635.88;;;4.39;55.18
68656;BME280;55638;51.122;13.606;2023-12-22T00:11:01;97641.38;;;4.38;55.20
68656;BME280;55638;51.122;13.606;2023-12-22T00:12:32;97624.53;;;4.37;55.46
68656;BME280;55638;51.122;13.606;2023-12-22T00:14:04;97634.38;;;4.36;55.36
68656;BME280;55638;51.122;13.606;2023-12-22T00:15:36;97640.69;;;4.35;55.26
68656;BME280;55638;51.122;13.606;2023-12-22T00:17:08;97629.88;;;4.37;55.19
68656;BME280;55638;51.122;13.606;2023-12-22T00:18:40;97640.69;;;4.35;55.29
68656;BME280;55638;51.122;13.606;2023-12-22T00:20:12;97635.34;;;4.35;55.41
68656;BME280;55638;51.122;13.606;2023-12-22T00:21:46;97639.84;;;4.35;55.37
68656;BME280;55638;51.122;13.606;2023-12-22T00:23:18;97640.69;;;4.35;54.97
68656;BME280;55638;51.122;13.606;2023-12-22T00:24:50;97646.00;;;4.35;54.85
68656;BME280;55638;51.122;13.606;2023-12-22T00:26:22;97635.66;;;4.32;54.96
68656;BME280;55638;51.122;13.606;2023-12-22T00:27:53;97651.66;;;4.32;55.17
68656;BME280;55638;51.122;13.606;2023-12-22T00:29:25;97655.00;;;4.34;54.57
68656;BME280;55638;51.122;13.606;2023-12-22T00:31:00;97632.00;;;4.33;54.83
68656;BME280;55638;51.122;13.606;2023-12-22T00:32:32;97644.66;;;4.31;54.86
68656;BME280;55638;51.122;13.606;2023-12-22T00:34:03;97648.00;;;4.33;54.76
68656;BME280;55638;51.122;13.606;2023-12-22T00:35:35;97647.19;;;4.33;54.56
68656;BME280;55638;51.122;13.606;2023-12-22T00:37:08;97648.84;;;4.34;54.84
68656;BME280;55638;51.122;13.606;2023-12-22T00:38:40;97653.19;;;4.35;54.87
68656;BME280;55638;51.122;13.606;2023-12-22T00:40:12;97645.03;;;4.36;54.79
68656;BME280;55638;51.122;13.606;2023-12-22T00:41:44;97645.56;;;4.40;54.92
68656;BME280;55638;51.122;13.606;2023-12-22T00:43:16;97632.06;;;4.42;54.67
68656;BME280;55638;51.122;13.606;2023-12-22T00:44:48;97650.75;;;4.42;54.94
68656;BME280;55638;51.122;13.606;2023-12-22T00:46:19;97654.09;;;4.44;54.67
68656;BME280;55638;51.122;13.606;2023-12-22T00:47:52;97642.44;;;4.45;54.60
68656;BME280;55638;51.122;13.606;2023-12-22T00:49:24;97639.63;;;4.46;54.37
68656;BME280;55638;51.122;13.606;2023-12-22T00:50:56;97654.47;;;4.49;54.38
68656;BME280;55638;51.122;13.606;2023-12-22T00:52:28;97640.00;;;4.51;54.56
68656;BME280;55638;51.122;13.606;2023-12-22T00:54:00;97646.88;;;4.54;54.18
68656;BME280;55638;51.122;13.606;2023-12-22T00:55:32;97645.19;;;4.53;54.29
68656;BME280;55638;51.122;13.606;2023-12-22T00:57:04;97639.41;;;4.57;54.39
68656;BME280;55638;51.122;13.606;2023-12-22T00:58:36;97648.94;;;4.60;54.22
68656;BME280;55638;51.122;13.606;2023-12-22T01:00:08;97655.94;;;4.61;54.30
68656;BME280;55638;51.122;13.606;2023-12-22T01:01:43;97653.97;;;4.63;54.10
68656;BME280;55638;51.122;13.606;2023-12-22T01:03:16;97659.31;;;4.63;54.08
68656;BME280;55638;51.122;13.606;2023-12-22T01:04:48;97657.34;;;4.65;53.98
68656;BME280;55638;51.122;13.606;2023-12-22T01:06:20;97660.66;;;4.67;54.08
68656;BME280;55638;51.122;13.606;2023-12-22T01:07:56;97661.19;;;4.71;53.87
68656;BME280;55638;51.122;13.606;2023-12-22T01:09:28;97660.38;;;4.70;54.09
68656;BME280;55638;51.122;13.606;2023-12-22T01:11:00;97666.69;;;4.69;53.96
68656;BME280;55638;51.122;13.606;2023-12-22T01:12:32;97667.66;;;4.68;54.07
68656;BME280;55638;51.122;13.606;2023-12-22T01:14:04;97674.72;;;4.69;54.08
68656;BME280;55638;51.122;13.606;2023-12-22T01:15:36;97669.06;;;4.72;53.88
68656;BME280;55638;51.122;13.606;2023-12-22T01:17:08;97669.91;;;4.73;54.10
68656;BME280;55638;51.122;13.606;2023-12-22T01:18:40;97691.25;;;4.73;54.27
68656;BME280;55638;51.122;13.606;2023-12-22T01:20:14;97681.56;;;4.72;53.99
68656;BME280;55638;51.122;13.606;2023-12-22T01:21:46;97687.75;;;4.72;54.17
68656;BME280;55638;51.122;13.606;2023-12-22T01:23:22;97685.91;;;4.73;54.18
68656;BME280;55638;51.122;13.606;2023-12-22T01:24:53;97713.44;;;4.73;54.07
68656;BME280;55638;51.122;13.606;2023-12-22T01:26:25;97698.25;;;4.74;53.81
68656;BME280;55638;51.122;13.606;2023-12-22T01:27:57;97696.41;;;4.74;53.90
68656;BME280;55638;51.122;13.606;2023-12-22T01:29:30;97709.75;;;4.74;53.65
68656;BME280;55638;51.122;13.606;2023-12-22T01:31:02;97703.59;;;4.74;53.62
68656;BME280;55638;51.122;13.606;2023-12-22T01:32:34;97699.09;;;4.74;53.68
68656;BME280;55638;51.122;13.606;2023-12-22T01:34:08;97711.59;;;4.74;53.64
68656;BME280;55638;51.122;13.606;2023-12-22T01:35:40;97717.63;;;4.76;53.05
68656;BME280;55638;51.122;13.606;2023-12-22T01:37:12;97713.13;;;4.76;53.15
68656;BME280;55638;51.122;13.606;2023-12-22T01:38:44;97720.13;;;4.77;52.85
68656;BME280;55638;51.122;13.606;2023-12-22T01:40:16;97712.28;;;4.76;53.08
68656;BME280;55638;51.122;13.606;2023-12-22T01:41:48;97710.47;;;4.76;53.21
68656;BME280;55638;51.122;13.606;2023-12-22T01:43:20;97715.09;;;4.74;53.43
68656;BME280;55638;51.122;13.606;2023-12-22T01:44:53;97718.75;;;4.73;53.47
68656;BME280;55638;51.122;13.606;2023-12-22T01:46:25;97716.94;;;4.74;53.63
68656;BME280;55638;51.122;13.606;2023-12-22T01:47:57;97709.75;;;4.74;53.49
68656;BME280;55638;51.122;13.606;2023-12-22T01:49:30;97720.59;;;4.73;53.49
68656;BME280;55638;51.122;13.606;2023-12-22T01:51:02;97732.81;;;4.75;53.54
68656;BME280;55638;51.122;13.606;2023-12-22T01:52:37;97721.28;;;4.75;53.45
68656;BME280;55638;51.122;13.606;2023-12-22T01:54:10;97725.94;;;4.73;53.58
68656;BME280;55638;51.122;13.606;2023-12-22T01:55:43;97721.59;;;4.72;53.65
68656;BME280;55638;51.122;13.606;2023-12-22T01:57:15;97726.06;;;4.71;53.57
68656;BME280;55638;51.122;13.606;2023-12-22T01:58:51;97727.25;;;4.69;53.62
68656;BME280;55638;51.122;13.606;2023-12-22T02:00:24;97737.22;;;4.67;53.47
68656;BME280;55638;51.122;13.606;2023-12-22T02:01:56;97733.16;;;4.63;53.70
68656;BME280;55638;51.122;13.606;2023-12-22T02:03:28;97738.94;;;4.58;53.61
68656;BME280;55638;51.122;13.606;2023-12-22T02:05:01;97736.56;;;4.55;53.57
68656;BME280;55638;51.122;13.606;2023-12-22T02:06:34;97750.50;;;4.49;53.84
68656;BME280;55638;51.122;13.606;2023-12-22T02:08:07;97753.63;;;4.44;53.69
68656;BME280;55638;51.122;13.606;2023-12-22T02:09:39;97747.75;;;4.41;53.92
68656;BME280;55638;51.122;13.606;2023-12-22T02:11:11;97743.84;;;4.35;53.89
68656;BME280;55638;51.122;13.606;2023-12-22T02:12:44;97751.59;;;4.28;54.00
68656;BME280;55638;51.122;13.606;2023-12-22T02:14:15;97731.56;;;4.24;54.12
68656;BME280;55638;51.122;13.606;2023-12-22T02:15:50;97747.16;;;4.19;54.31
68656;BME280;55638;51.122;13.606;2023-12-22T02:21:07;97744.28;;;4.03;54.25
68656;BME280;55638;51.122;13.606;2023-12-22T02:22:39;97731.25;;;4.00;54.44
68656;BME280;55638;51.122;13.606;2023-12-22T02:24:11;97739.41;;;3.98;54.73
68656;BME280;55638;51.122;13.606;2023-12-22T02:25:42;97736.19;;;3.95;54.57
68656;BME280;55638;51.122;13.606;2023-12-22T02:28:57;97748.44;;;3.87;54.69
68656;BME280;55638;51.122;13.606;2023-12-22T02:30:41;97741.41;;;3.86;54.63
68656;BME280;55638;51.122;13.606;2023-12-22T02:32:22;97732.84;;;3.83;54.79
68656;BME280;55638;51.122;13.606;2023-12-22T02:33:58;97724.84;;;3.83;54.94
68656;BME280;55638;51.122;13.606;2023-12-22T02:35:34;97740.31;;;3.79;54.75
68656;BME280;55638;51.122;13.606;2023-12-22T02:37:08;97744.25;;;3.75;54.96
68656;BME280;55638;51.122;13.606;2023-12-22T02:38:42;97758.41;;;3.76;54.92
68656;BME280;55638;51.122;13.606;2023-12-22T02:40:14;97746.19;;;3.73;54.98
68656;BME280;55638;51.122;13.606;2023-12-22T02:41:47;97746.38;;;3.72;55.16
68656;BME280;55638;51.122;13.606;2023-12-22T02:43:19;97754.63;;;3.69;55.11
68656;BME280;55638;51.122;13.606;2023-12-22T02:44:51;97748.47;;;3.68;55.47
68656;BME280;55638;51.122;13.606;2023-12-22T02:46:23;97748.47;;;3.68;55.26
68656;BME280;55638;51.122;13.606;2023-12-22T02:47:55;97736.97;;;3.68;55.37
68656;BME280;55638;51.122;13.606;2023-12-22T02:49:27;97736.13;;;3.67;55.45
68656;BME280;55638;51.122;13.606;2023-12-22T02:50:59;97739.63;;;3.68;55.67
68656;BME280;55638;51.122;13.606;2023-12-22T02:52:31;97733.47;;;3.67;55.55
68656;BME280;55638;51.122;13.606;2023-12-22T02:54:04;97737.53;;;3.71;55.71
68656;BME280;55638;51.122;13.606;2023-12-22T02:55:36;97736.66;;;3.71;55.63
68656;BME280;55638;51.122;13.606;2023-12-22T02:57:08;97732.22;;;3.71;55.57
68656;BME280;55638;51.122;13.606;2023-12-22T02:58:40;97735.53;;;3.73;55.68
68656;BME280;55638;51.122;13.606;2023-12-22T03:00:12;97728.94;;;3.77;55.73
68656;BME280;55638;51.122;13.606;2023-12-22T03:01:44;97735.13;;;3.78;55.49
68656;BME280;55638;51.122;13.606;2023-12-22T03:03:16;97736.63;;;3.80;55.53
68656;BME280;55638;51.122;13.606;2023-12-22T03:04:48;97728.22;;;3.85;55.47
68656;BME280;55638;51.122;13.606;2023-12-22T03:06:20;97735.22;;;3.86;55.24
68656;BME280;55638;51.122;13.606;2023-12-22T03:07:51;97731.16;;;3.92;55.07
68656;BME280;55638;51.122;13.606;2023-12-22T03:09:23;97715.16;;;3.92;55.07
68656;BME280;55638;51.122;13.606;2023-12-22T03:10:55;97712.50;;;3.92;55.18
68656;BME280;55638;51.122;13.606;2023-12-22T03:12:27;97711.22;;;3.96;54.96
68656;BME280;55638;51.122;13.606;2023-12-22T03:13:59;97707.41;;;3.98;55.04
68656;BME280;55638;51.122;13.606;2023-12-22T03:15:31;97713.44;;;4.00;55.09
68656;BME280;55638;51.122;13.606;2023-12-22T03:17:04;97695.63;;;4.01;55.21
68656;BME280;55638;51.122;13.606;2023-12-22T03:18:39;97715.94;;;4.02;54.85
68656;BME280;55638;51.122;13.606;2023-12-22T03:20:12;97710.34;;;4.05;54.73
68656;BME280;55638;51.122;13.606;2023-12-22T03:21:43;97713.00;;;4.05;54.72
68656;BME280;55638;51.122;13.606;2023-12-22T03:23:15;97703.16;;;4.05;54.80
68656;BME280;55638;51.122;13.606;2023-12-22T03:24:47;97705.00;;;4.05;54.69
68656;BME280;55638;51.122;13.606;2023-12-22T03:26:19;97717.19;;;4.07;54.79
68656;BME280;55638;51.122;13.606;2023-12-22T03:27:51;97713.53;;;4.08;54.83
68656;BME280;55638;51.122;13.606;2023-12-22T03:29:23;97712.69;;;4.08;54.90
68656;BME280;55638;51.122;13.606;2023-12-22T03:30:55;97713.69;;;4.07;54.69
68656;BME280;55638;51.122;13.606;2023-12-22T03:32:27;97707.38;;;4.08;54.66
68656;BME280;55638;51.122;13.606;2023-12-22T03:33:59;97702.03;;;4.08;54.80
68656;BME280;55638;51.122;13.606;2023-12-22T03:35:31;97708.06;;;4.10;54.74
68656;BME280;55638;51.122;13.606;2023-12-22T03:37:03;97710.75;;;4.10;54.85
68656;BME280;55638;51.122;13.606;2023-12-22T03:38:35;97718.72;;;4.10;54.66
68656;BME280;55638;51.122;13.606;2023-12-22T03:40:07;97711.28;;;4.13;54.53
68656;BME280;55638;51.122;13.606;2023-12-22T03:41:39;97711.28;;;4.13;54.77
68656;BME280;55638;51.122;13.606;2023-12-22T03:43:11;97716.31;;;4.17;54.52
68656;BME280;55638;51.122;13.606;2023-12-22T03:44:43;97717.00;;;4.19;54.58
68656;BME280;55638;51.122;13.606;2023-12-22T03:46:15;97708.84;;;4.20;54.49
68656;BME280;55638;51.122;13.606;2023-12-22T03:47:47;97701.53;;;4.22;54.63
68656;BME280;55638;51.122;13.606;2023-12-22T03:49:19;97712.72;;;4.26;54.32
68656;BME280;55638;51.122;13.606;2023-12-22T03:50:51;97711.59;;;4.28;54.18
68656;BME280;55638;51.122;13.606;2023-12-22T03:52:23;97710.78;;;4.28;54.15
68656;BME280;55638;51.122;13.606;2023-12-22T03:53:55;97699.94;;;4.29;54.17
68656;BME280;55638;51.122;13.606;2023-12-22T03:55:27;97703.47;;;4.30;53.98
68656;BME280;55638;51.122;13.606;2023-12-22T03:56:59;97720.97;;;4.32;54.05
68656;BME280;55638;51.122;13.606;2023-12-22T03:58:31;97712.00;;;4.33;53.86
68656;BME280;55638;51.122;13.606;2023-12-22T04:00:03;97701.19;;;4.35;53.86
68656;BME280;55638;51.122;13.606;2023-12-22T04:01:36;97704.56;;;4.37;53.71
68656;BME280;55638;51.122;13.606;2023-12-22T04:03:08;97707.03;;;4.39;53.43
68656;BME280;55638;51.122;13.606;2023-12-22T04:04:40;97722.22;;;4.38;53.38
68656;BME280;55638;51.122;13.606;2023-12-22T04:06:12;97687.41;;;4.40;52.99
68656;BME280;55638;51.122;13.606;2023-12-22T04:07:44;97701.41;;;4.42;53.23
68656;BME280;55638;51.122;13.606;2023-12-22T04:09:16;97696.78;;;4.44;53.07
68656;BME280;55638;51.122;13.606;2023-12-22T04:10:48;97697.63;;;4.44;52.78
68656;BME280;55638;51.122;13.606;2023-12-22T04:12:20;97698.31;;;4.46;52.86
68656;BME280;55638;51.122;13.606;2023-12-22T04:13:52;97692.16;;;4.46;52.50
68656;BME280;55638;51.122;13.606;2023-12-22T04:15:24;97693.94;;;4.45;52.73
68656;BME280;55638;51.122;13.606;2023-12-22T04:16:56;97686.81;;;4.46;52.86
68656;BME280;55638;51.122;13.606;2023-12-22T04:18:29;97691.16;;;4.47;52.54
68656;BME280;55638;51.122;13.606;2023-12-22T04:20:01;97698.44;;;4.45;52.59
68656;BME280;55638;51.122;13.606;2023-12-22T04:21:33;97713.78;;;4.43;52.70
68656;BME280;55638;51.122;13.606;2023-12-22T04:23:05;97706.75;;;4.42;52.80
68656;BME280;55638;51.122;13.606;2023-12-22T04:24:37;97705.91;;;4.41;52.78
68656;BME280;55638;51.122;13.606;2023-12-22T04:26:09;97698.75;;;4.42;52.91
68656;BME280;55638;51.122;13.606;2023-12-22T04:27:41;97714.75;;;4.42;52.60
68656;BME280;55638;51.122;13.606;2023-12-22T04:29:14;97707.75;;;4.41;52.74
68656;BME280;55638;51.122;13.606;2023-12-22T04:30:46;97710.41;;;4.41;52.82
68656;BME280;55638;51.122;13.606;2023-12-22T04:32:18;97713.09;;;4.41;52.82
68656;BME280;55638;51.122;13.606;2023-12-22T04:33:50;97720.09;;;4.42;52.80
68656;BME280;55638;51.122;13.606;2023-12-22T04:35:22;97714.75;;;4.42;52.69
68656;BME280;55638;51.122;13.606;2023-12-22T04:36:54;97717.59;;;4.40;52.78
68656;BME280;55638;51.122;13.606;2023-12-22T04:38:26;97712.38;;;4.39;53.00
68656;BME280;55638;51.122;13.606;2023-12-22T04:39:58;97703.72;;;4.36;52.91
68656;BME280;55638;51.122;13.606;2023-12-22T04:41:30;97708.03;;;4.38;52.38
68656;BME280;55638;51.122;13.606;2023-12-22T04:43:02;97705.69;;;4.34;52.65
68656;BME280;55638;51.122;13.606;2023-12-22T04:44:34;97714.81;;;4.32;52.66
68656;BME280;55638;51.122;13.606;2023-12-22T04:46:06;97732.63;;;4.31;52.41
68656;BME280;55638;51.122;13.606;2023-12-22T04:47:38;97699.09;;;4.29;52.52
68656;BME280;55638;51.122;13.606;2023-12-22T04:49:10;97698.28;;;4.28;52.57
68656;BME280;55638;51.122;13.606;2023-12-22T04:50:42;97703.06;;;4.25;52.74
68656;BME280;55638;51.122;13.606;2023-12-22T04:52:14;97709.41;;;4.24;52.78
68656;BME280;55638;51.122;13.606;2023-12-22T04:53:46;97705.34;;;4.20;52.83
68656;BME280;55638;51.122;13.606;2023-12-22T04:55:17;97717.53;;;4.22;52.66
68656;BME280;55638;51.122;13.606;2023-12-22T04:56:49;97711.22;;;4.23;52.50
68656;BME280;55638;51.122;13.606;2023-12-22T04:58:21;97720.34;;;4.21;52.82
68656;BME280;55638;51.122;13.606;2023-12-22T04:59:53;97713.19;;;4.21;52.77
68656;BME280;55638;51.122;13.606;2023-12-22T05:01:25;97726.53;;;4.21;52.91
68656;BME280;55638;51.122;13.606;2023-12-22T05:02:57;97703.38;;;4.22;52.82
68656;BME280;55638;51.122;13.606;2023-12-22T05:04:29;97704.34;;;4.21;52.90
68656;BME280;55638;51.122;13.606;2023-12-22T05:06:01;97722.19;;;4.20;52.88
68656;BME280;55638;51.122;13.606;2023-12-22T05:07:34;97725.69;;;4.21;52.84
68656;BME280;55638;51.122;13.606;2023-12-22T05:09:06;97732.69;;;4.22;52.67
68656;BME280;55638;51.122;13.606;2023-12-22T05:10:37;97724.84;;;4.20;52.84
68656;BME280;55638;51.122;13.606;2023-12-22T05:12:10;97716.16;;;4.18;52.94
68656;BME280;55638;51.122;13.606;2023-12-22T05:13:42;97724.44;;;4.15;52.88
68656;BME280;55638;51.122;13.606;2023-12-22T05:15:14;97701.28;;;4.16;52.57
68656;BME280;55638;51.122;13.606;2023-12-22T05:16:46;97722.78;;;4.14;52.84
68656;BME280;55638;51.122;13.606;2023-12-22T05:18:18;97712.41;;;4.11;52.81
68656;BME280;55638;51.122;13.606;2023-12-22T05:19:50;97703.88;;;4.07;52.87
68656;BME280;55638;51.122;13.606;2023-12-22T05:21:22;97713.00;;;4.05;52.94
68656;BME280;55638;51.122;13.606;2023-12-22T05:22:54;97716.78;;;4.02;53.10
68656;BME280;55638;51.122;13.606;2023-12-22T05:24:26;97709.09;;;3.99;53.01
68656;BME280;55638;51.122;13.606;2023-12-22T05:25:59;97726.91;;;3.99;53.16
68656;BME280;55638;51.122;13.606;2023-12-22T05:27:31;97715.53;;;3.97;53.26
68656;BME280;55638;51.122;13.606;2023-12-22T05:29:02;97721.31;;;3.92;53.39
68656;BME280;55638;51.122;13.606;2023-12-22T05:30:34;97719.50;;;3.93;53.26
68656;BME280;55638;51.122;13.606;2023-12-22T05:32:06;97711.78;;;3.89;53.48
68656;BME280;55638;51.122;13.606;2023-12-22T05:33:38;97711.13;;;3.87;53.06
68656;BME280;55638;51.122;13.606;2023-12-22T05:35:10;97729.59;;;3.89;53.41
68656;BME280;55638;51.122;13.606;2023-12-22T05:36:42;97716.56;;;3.86;53.54
68656;BME280;55638;51.122;13.606;2023-12-22T05:38:14;97732.72;;;3.84;53.43
68656;BME280;55638;51.122;13.606;2023-12-22T05:39:46;97720.38;;;3.83;53.60
68656;BME280;55638;51.122;13.606;2023-12-22T05:41:18;97731.31;;;3.80;53.48
68656;BME280;55638;51.122;13.606;2023-12-22T05:42:50;97721.53;;;3.81;53.58
68656;BME280;55638;51.122;13.606;2023-12-22T05:44:22;97717.16;;;3.80;53.62
68656;BME280;55638;51.122;13.606;2023-12-22T05:45:55;97716.47;;;3.78;53.52
68656;BME280;55638;51.122;13.606;2023-12-22T05:47:27;97720.94;;;3.77;53.44
68656;BME280;55638;51.122;13.606;2023-12-22T05:48:59;97721.09;;;3.76;53.73
68656;BME280;55638;51.122;13.606;2023-12-22T05:50:32;97729.25;;;3.74;53.63
68656;BME280;55638;51.122;13.606;2023-12-22T05:52:04;97716.91;;;3.73;53.44
68656;BME280;55638;51.122;13.606;2023-12-22T05:53:36;97741.16;;;3.70;53.44
68656;BME280;55638;51.122;13.606;2023-12-22T05:55:08;97722.50;;;3.70;53.67
68656;BME280;55638;51.122;13.606;2023-12-22T05:56:40;97719.31;;;3.66;53.72
68656;BME280;55638;51.122;13.606;2023-12-22T05:58:12;97729.97;;;3.66;53.81
68656;BME280;55638;51.122;13.606;2023-12-22T05:59:44;97746.78;;;3.67;53.54
68656;BME280;55638;51.122;13.606;2023-12-22T06:01:17;97731.63;;;3.68;53.83
68656;BME280;55638;51.122;13.606;2023-12-22T06:02:50;97738.94;;;3.65;54.00
68656;BME280;55638;51.122;13.606;2023-12-22T06:04:22;97747.06;;;3.64;53.91
68656;BME280;55638;51.122;13.606;2023-12-22T06:05:54;97752.25;;;3.65;54.07
68656;BME280;55638;51.122;13.606;2023-12-22T06:07:26;97752.09;;;3.67;54.08
68656;BME280;55638;51.122;13.606;2023-12-22T06:08:58;97751.28;;;3.66;54.00
68656;BME280;55638;51.122;13.606;2023-12-22T06:10:30;97751.28;;;3.66;53.85
68656;BME280;55638;51.122;13.606;2023-12-22T06:12:02;97755.75;;;3.66;53.99
68656;BME280;55638;51.122;13.606;2023-12-22T06:13:34;97766.41;;;3.66;54.02
68656;BME280;55638;51.122;13.606;2023-12-22T06:15:06;97767.25;;;3.66;54.09
68656;BME280;55638;51.122;13.606;2023-12-22T06:16:39;97743.28;;;3.66;53.91
68656;BME280;55638;51.122;13.606;2023-12-22T06:18:11;97746.94;;;3.65;53.99
68656;BME280;55638;51.122;13.606;2023-12-22T06:19:43;97736.56;;;3.62;54.12
68656;BME280;55638;51.122;13.606;2023-12-22T06:21:15;97740.78;;;3.65;54.17
68656;BME280;55638;51.122;13.606;2023-12-22T06:22:47;97749.06;;;3.62;54.26
68656;BME280;55638;51.122;13.606;2023-12-22T06:24:19;97747.06;;;3.64;54.14
68656;BME280;55638;51.122;13.606;2023-12-22T06:25:50;97749.59;;;3.65;54.06
68656;BME280;55638;51.122;13.606;2023-12-22T06:27:22;97749.72;;;3.64;54.01
68656;BME280;55638;51.122;13.606;2023-12-22T06:28:55;97747.22;;;3.62;53.69
68656;BME280;55638;51.122;13.606;2023-12-22T06:30:27;97758.00;;;3.61;53.74
68656;BME280;55638;51.122;13.606;2023-12-22T06:31:59;97750.00;;;3.61;53.83
68656;BME280;55638;51.122;13.606;2023-12-22T06:33:31;97752.00;;;3.59;53.80
68656;BME280;55638;51.122;13.606;2023-12-22T06:35:03;97740.78;;;3.55;54.03
68656;BME280;55638;51.122;13.606;2023-12-22T06:36:35;97738.97;;;3.56;53.99
68656;BME280;55638;51.122;13.606;2023-12-22T06:38:07;97745.97;;;3.57;53.99
68656;BME280;55638;51.122;13.606;2023-12-22T06:39:39;97739.81;;;3.56;53.74
68656;BME280;55638;51.122;13.606;2023-12-22T06:41:22;97740.91;;;3.54;53.53
68656;BME280;55638;51.122;13.606;2023-12-22T06:42:58;97750.63;;;3.55;53.80
68656;BME280;55638;51.122;13.606;2023-12-22T06:44:30;97745.13;;;3.56;53.93
68656;BME280;55638;51.122;13.606;2023-12-22T06:46:03;97760.28;;;3.56;53.82
68656;BME280;55638;51.122;13.606;2023-12-22T06:47:35;97749.63;;;3.56;53.92
68656;BME280;55638;51.122;13.606;2023-12-22T06:49:07;97761.94;;;3.57;54.04
68656;BME280;55638;51.122;13.606;2023-12-22T06:50:39;97751.00;;;3.60;53.70
68656;BME280;55638;51.122;13.606;2023-12-22T06:52:11;97748.50;;;3.58;53.98
68656;BME280;55638;51.122;13.606;2023-12-22T06:53:43;97749.19;;;3.60;53.94
68656;BME280;55638;51.122;13.606;2023-12-22T06:55:15;97740.34;;;3.60;53.81
68656;BME280;55638;51.122;13.606;2023-12-22T06:56:47;97742.03;;;3.61;53.72
68656;BME280;55638;51.122;13.606;2023-12-22T06:58:19;97731.38;;;3.61;53.69
68656;BME280;55638;51.122;13.606;2023-12-22T06:59:53;97743.00;;;3.60;53.85
68656;BME280;55638;51.122;13.606;2023-12-22T07:01:28;97735.84;;;3.60;53.78
68656;BME280;55638;51.122;13.606;2023-12-22T07:03:00;97749.34;;;3.59;53.59
68656;BME280;55638;51.122;13.606;2023-12-22T07:06:38;97742.63;;;3.55;53.67
68656;BME280;55638;51.122;13.606;2023-12-22T07:08:10;97740.91;;;3.54;53.50
68656;BME280;55638;51.122;13.606;2023-12-22T07:09:42;97749.06;;;3.52;53.34
68656;BME280;55638;51.122;13.606;2023-12-22T07:11:14;97752.69;;;3.51;53.41
68656;BME280;55638;51.122;13.606;2023-12-22T07:12:47;97761.84;;;3.49;53.37
68656;BME280;55638;51.122;13.606;2023-12-22T07:14:19;97753.13;;;3.47;53.57
68656;BME280;55638;51.122;13.606;2023-12-22T07:15:51;97772.91;;;3.44;53.27
68656;BME280;55638;51.122;13.606;2023-12-22T07:17:25;97758.03;;;3.41;53.34
68656;BME280;55638;51.122;13.606;2023-12-22T07:18:57;97767.03;;;3.40;53.34
68656;BME280;55638;51.122;13.606;2023-12-22T07:20:29;97767.19;;;3.39;53.68
68656;BME280;55638;51.122;13.606;2023-12-22T07:22:01;97768.00;;;3.39;53.64
68656;BME280;55638;51.122;13.606;2023-12-22T07:23:34;97782.31;;;3.38;53.67
68656;BME280;55638;51.122;13.606;2023-12-22T07:25:06;97785.81;;;3.39;53.37
68656;BME280;55638;51.122;13.606;2023-12-22T07:26:40;97782.31;;;3.38;53.56
68656;BME280;55638;51.122;13.606;2023-12-22T07:28:11;97784.00;;;3.39;53.85
68656;BME280;55638;51.122;13.606;2023-12-22T07:29:43;97792.97;;;3.38;53.86
68656;BME280;55638;51.122;13.606;2023-12-22T07:31:15;97810.75;;;3.38;54.06
68656;BME280;55638;51.122;13.606;2023-12-22T07:32:47;97774.88;;;3.42;54.05
68656;BME280;55638;51.122;13.606;2023-12-22T07:34:24;97811.00;;;3.45;53.84
68656;BME280;55638;51.122;13.606;2023-12-22T07:35:59;97795.91;;;3.45;53.94
68656;BME280;55638;51.122;13.606;2023-12-22T07:37:31;97796.59;;;3.47;54.08
68656;BME280;55638;51.122;13.606;2023-12-22T07:39:02;97805.41;;;3.48;53.73
68656;BME280;55638;51.122;13.606;2023-12-22T07:40:34;97816.78;;;3.50;53.85
68656;BME280;55638;51.122;13.606;2023-12-22T07:42:07;97830.91;;;3.50;53.98
68656;BME280;55638;51.122;13.606;2023-12-22T07:43:39;97825.47;;;3.52;54.02
68656;BME280;55638;51.122;13.606;2023-12-22T07:45:11;97835.97;;;3.53;53.81
68656;BME280;55638;51.122;13.606;2023-12-22T07:46:45;97823.50;;;3.54;53.81
68656;BME280;55638;51.122;13.606;2023-12-22T07:48:19;97839.63;;;3.52;54.17
68656;BME280;55638;51.122;13.606;2023-12-22T07:49:50;97839.06;;;3.49;54.33
68656;BME280;55638;51.122;13.606;2023-12-22T07:51:23;97848.84;;;3.48;54.31
68656;BME280;55638;51.122;13.606;2023-12-22T07:52:54;97861.50;;;3.46;54.31
68656;BME280;55638;51.122;13.606;2023-12-22T07:54:27;97888.25;;;3.45;54.38
68656;BME280;55638;51.122;13.606;2023-12-22T07:55:58;97883.91;;;3.43;54.31
68656;BME280;55638;51.122;13.606;2023-12-22T07:57:30;97885.19;;;3.39;54.48
68656;BME280;55638;51.122;13.606;2023-12-22T07:59:02;97912.78;;;3.38;54.44
68656;BME280;55638;51.122;13.606;2023-12-22T08:00:53;97909.50;;;3.35;54.42
68656;BME280;55638;51.122;13.606;2023-12-22T08:02:25;97919.88;;;3.28;54.25
68656;BME280;55638;51.122;13.606;2023-12-22T08:03:57;97919.44;;;3.23;54.26
68656;BME280;55638;51.122;13.606;2023-12-22T08:05:28;97924.47;;;3.16;54.29
68656;BME280;55638;51.122;13.606;2023-12-22T08:07:01;97938.72;;;3.06;54.08
68656;BME280;55638;51.122;13.606;2023-12-22T08:08:34;97907.91;;;2.93;54.20
68656;BME280;55638;51.122;13.606;2023-12-22T08:10:06;97918.50;;;2.84;54.56
68656;BME280;55638;51.122;13.606;2023-12-22T08:11:38;97908.94;;;2.71;54.31
68656;BME280;55638;51.122;13.606;2023-12-22T08:13:10;97923.44;;;2.58;54.69
68656;BME280;55638;51.122;13.606;2023-12-22T08:14:42;97896.25;;;2.44;54.86
68656;BME280;55638;51.122;13.606;2023-12-22T08:16:13;97898.25;;;2.31;54.76